Terminal Aerodrome Forecast
Issued by NWS

Home | Current Version | Previous Version | Text Only | Print | Product List | Glossary On
Versions: 1 2 3 4 5 6 7 8 9 10 11 12 13 14 15 16 17 18 19 20 21 22 23 24 25 26 27 28 29 30
000
FTUS42 KRAH 010540
TAFINT
TAF
KINT 010540Z 0106/0206 10006KT 3SM -SHRA BR OVC004
      TEMPO 0106/0109 6SM BR SCT005 BKN012
     FM011400 19009KT 6SM BR VCSH BKN008 OVC015
     FM011600 21008G16KT P6SM BKN015 OVC040=

USA.gov is the U.S. government's official web portal to all federal, state and local government web resources and services.